Time;durP1;ratioP1;P1;durP2;ratioP2;P2;SDS_P1;SDS_P2;PMS_P1;PMS_P2;Temp;Humidity;BMP_temperature;BMP_pressure;BME280_temperature;BME280_humidity;BME280_pressure;Samples;Min_cycle;Max_cycle;Signal;HPM_P1;HPM_P2
2023/06/26 00:00:03;;;;;;;11.93;10.83;;;23.70;99.90;;;;;;5099923;28;20450;-75
2023/06/26 00:02:33;;;;;;;11.57;10.60;;;23.70;99.90;;;;;;5100579;28;20464;-75
2023/06/26 00:05:02;;;;;;;12.03;10.83;;;23.70;99.90;;;;;;5099597;28;20492;-75
2023/06/26 00:07:33;;;;;;;11.70;10.60;;;23.60;99.90;;;;;;5099517;28;20436;-75
2023/06/26 00:10:04;;;;;;;13.57;12.37;;;23.50;99.90;;;;;;5100383;28;20426;-76
2023/06/26 00:12:32;;;;;;;13.10;11.90;;;23.50;99.90;;;;;;5101176;28;20416;-75
2023/06/26 00:15:01;;;;;;;12.07;11.07;;;23.50;99.90;;;;;;5100631;28;20440;-75
2023/06/26 00:17:29;;;;;;;12.80;11.50;;;23.50;99.90;;;;;;5100508;28;20478;-75
2023/06/26 00:19:57;;;;;;;12.23;11.13;;;23.50;99.90;;;;;;5099808;28;20458;-76
2023/06/26 00:22:25;;;;;;;12.53;11.33;;;23.40;99.90;;;;;;5099344;28;20470;-75
2023/06/26 00:24:54;;;;;;;12.27;11.17;;;23.40;99.90;;;;;;5099336;28;20460;-75
2023/06/26 00:27:23;;;;;;;11.90;10.80;;;23.40;99.90;;;;;;5100040;28;20569;-75
2023/06/26 00:29:52;;;;;;;12.97;11.77;;;23.30;99.90;;;;;;5100254;28;20531;-75
2023/06/26 00:32:21;;;;;;;12.33;11.23;;;23.30;99.90;;;;;;5099523;28;20452;-75
2023/06/26 00:34:49;;;;;;;11.73;10.63;;;23.30;99.90;;;;;;5097485;28;20531;-76
2023/06/26 00:37:17;;;;;;;12.63;11.43;;;23.30;99.90;;;;;;5098729;28;20448;-76
2023/06/26 00:39:45;;;;;;;12.30;11.20;;;23.20;99.90;;;;;;5100328;28;20523;-75
2023/06/26 00:42:13;;;;;;;13.37;12.17;;;23.20;99.90;;;;;;5099754;28;20448;-75
2023/06/26 00:44:46;;;;;;;14.40;13.10;;;23.20;99.90;;;;;;5099306;28;20476;-76
2023/06/26 00:47:17;;;;;;;13.00;11.80;;;23.20;99.90;;;;;;5101712;28;20449;-75
2023/06/26 00:49:45;;;;;;;13.43;12.13;;;23.20;99.90;;;;;;5100857;28;20480;-75
2023/06/26 00:52:14;;;;;;;11.87;10.73;;;23.10;99.90;;;;;;5099820;28;20490;-76
2023/06/26 00:54:42;;;;;;;12.70;11.53;;;23.10;99.90;;;;;;5099056;28;20440;-75
2023/06/26 00:57:11;;;;;;;13.67;12.27;;;23.00;99.90;;;;;;5099202;28;20881;-76
2023/06/26 00:59:39;;;;;;;11.90;10.80;;;23.00;99.90;;;;;;5100205;28;20444;-76
2023/06/26 01:02:09;;;;;;;12.10;11.00;;;23.00;99.90;;;;;;5101139;28;20440;-76
2023/06/26 01:04:40;;;;;;;11.93;10.90;;;23.00;99.90;;;;;;5099016;28;20464;-77
2023/06/26 01:07:08;;;;;;;12.70;11.60;;;23.00;99.90;;;;;;5098873;28;20476;-75
2023/06/26 01:09:37;;;;;;;13.00;11.70;;;22.90;99.90;;;;;;5100980;28;20470;-76
2023/06/26 01:12:05;;;;;;;12.23;11.13;;;22.90;99.90;;;;;;5101041;28;20451;-75
2023/06/26 01:14:35;;;;;;;13.70;12.40;;;22.90;99.90;;;;;;5097768;28;20444;-75
2023/06/26 01:17:04;;;;;;;13.13;11.90;;;22.90;99.90;;;;;;5096739;28;21020;-76
2023/06/26 01:19:34;;;;;;;12.63;11.43;;;22.90;99.90;;;;;;5098177;28;20506;-76
2023/06/26 01:22:14;;;;;;;12.20;11.07;;;22.90;99.90;;;;;;5096021;28;20433;-76
2023/06/26 01:24:53;;;;;;;13.70;12.37;;;22.80;99.90;;;;;;5095678;28;20460;-77
2023/06/26 01:27:23;;;;;;;13.07;11.77;;;22.80;99.90;;;;;;5096002;28;20493;-76
2023/06/26 01:29:53;;;;;;;12.70;11.40;;;22.80;99.90;;;;;;5097646;28;20432;-75
2023/06/26 01:32:23;;;;;;;12.60;11.50;;;22.70;99.90;;;;;;5097506;28;20890;-75
2023/06/26 01:34:54;;;;;;;12.60;11.30;;;22.80;99.90;;;;;;5095393;28;20447;-76
2023/06/26 01:37:22;;;;;;;12.73;11.53;;;22.70;99.90;;;;;;5096088;28;20447;-76
2023/06/26 01:39:50;;;;;;;13.17;11.90;;;22.70;99.90;;;;;;5096068;28;20508;-75
2023/06/26 01:42:19;;;;;;;13.37;12.17;;;22.60;99.90;;;;;;5096104;28;20528;-76
2023/06/26 01:44:49;;;;;;;13.40;12.20;;;22.60;99.90;;;;;;5095214;28;20470;-76
2023/06/26 01:47:22;;;;;;;12.90;11.57;;;22.60;99.90;;;;;;5095729;28;20437;-76
2023/06/26 01:50:02;;;;;;;13.47;12.20;;;22.60;99.90;;;;;;5095989;28;20481;-76
2023/06/26 01:52:38;;;;;;;12.67;11.57;;;22.50;99.90;;;;;;5095086;28;20466;-76
2023/06/26 01:55:16;;;;;;;12.50;11.40;;;22.50;99.90;;;;;;5095131;28;20463;-75
2023/06/26 01:57:46;;;;;;;13.43;12.23;;;22.50;99.90;;;;;;5093363;28;20868;-75
2023/06/26 02:00:18;;;;;;;12.00;10.80;;;22.50;99.90;;;;;;5094855;28;20428;-75
2023/06/26 02:02:47;;;;;;;13.90;12.60;;;22.40;99.90;;;;;;5093832;28;20961;-76
2023/06/26 02:05:15;;;;;;;14.03;12.73;;;22.40;99.90;;;;;;5096574;28;20432;-76
2023/06/26 02:07:44;;;;;;;13.47;12.27;;;22.40;99.90;;;;;;5095123;28;20552;-76
2023/06/26 02:10:12;;;;;;;13.03;11.83;;;22.40;99.90;;;;;;5094766;28;20531;-75
2023/06/26 02:12:40;;;;;;;13.40;12.23;;;22.30;99.90;;;;;;5095139;28;20502;-76
2023/06/26 02:15:09;;;;;;;13.70;12.50;;;22.30;99.90;;;;;;5094676;28;20820;-75
2023/06/26 02:17:41;;;;;;;14.33;12.37;;;22.30;99.90;;;;;;5094797;28;20855;-75
2023/06/26 02:20:10;;;;;;;12.70;11.60;;;22.30;99.90;;;;;;5093768;28;20456;-75
2023/06/26 02:22:38;;;;;;;14.50;13.10;;;22.20;99.90;;;;;;5093897;28;20452;-77
2023/06/26 02:25:10;;;;;;;13.93;12.53;;;22.20;99.90;;;;;;5095948;28;20460;-77
2023/06/26 02:27:38;;;;;;;14.17;12.87;;;22.20;99.90;;;;;;5093894;28;20440;-76
2023/06/26 02:30:09;;;;;;;13.20;12.10;;;22.20;99.90;;;;;;5094748;28;20937;-75
2023/06/26 02:32:37;;;;;;;14.60;13.20;;;22.10;99.90;;;;;;5096388;28;20409;-75
2023/06/26 02:35:08;;;;;;;13.03;11.90;;;22.10;99.90;;;;;;5095577;28;20925;-75
2023/06/26 02:37:36;;;;;;;13.20;12.07;;;22.10;99.90;;;;;;5094633;28;20417;-75
2023/06/26 02:40:07;;;;;;;13.27;12.10;;;22.10;99.90;;;;;;5095960;28;20991;-75
2023/06/26 02:42:36;;;;;;;13.77;12.60;;;22.10;99.90;;;;;;5095636;28;20447;-75
2023/06/26 02:45:06;;;;;;;13.43;12.10;;;22.00;99.90;;;;;;5095477;28;20490;-76
2023/06/26 02:47:34;;;;;;;13.40;12.00;;;22.00;99.90;;;;;;5095523;28;20448;-75
2023/06/26 02:50:02;;;;;;;15.20;13.67;;;22.00;99.90;;;;;;5096116;28;20448;-75
2023/06/26 02:52:50;;;;;;;13.87;12.57;;;22.00;99.90;;;;;;5097042;28;20432;-75
2023/06/26 02:55:19;;;;;;;13.33;12.17;;;21.90;99.90;;;;;;5096822;28;20797;-75
2023/06/26 02:57:50;;;;;;;13.47;12.30;;;21.90;99.90;;;;;;5099925;28;20464;-76
2023/06/26 03:00:18;;;;;;;14.23;12.90;;;21.90;99.90;;;;;;5099579;28;20523;-75
2023/06/26 03:02:50;;;;;;;13.93;12.63;;;21.90;99.90;;;;;;5100490;28;20439;-77
2023/06/26 03:05:20;;;;;;;14.93;13.47;;;21.80;99.90;;;;;;5099511;28;20551;-76
2023/06/26 03:07:50;;;;;;;14.13;12.83;;;21.80;99.90;;;;;;5099168;28;20460;-75
2023/06/26 03:10:18;;;;;;;13.30;12.17;;;21.80;99.90;;;;;;5099724;28;20470;-75
2023/06/26 03:12:46;;;;;;;16.87;15.27;;;21.80;99.90;;;;;;5099265;28;20879;-76
2023/06/26 03:15:14;;;;;;;21.97;19.77;;;21.80;99.90;;;;;;5099572;28;20443;-77
2023/06/26 03:17:42;;;;;;;22.07;20.07;;;21.80;99.90;;;;;;5101654;28;20483;-76
2023/06/26 03:20:15;;;;;;;22.07;20.00;;;21.70;99.90;;;;;;5101299;28;20469;-76
2023/06/26 03:22:55;;;;;;;27.20;24.60;;;21.70;99.90;;;;;;5100848;28;20455;-75
2023/06/26 03:25:24;;;;;;;21.20;19.20;;;21.70;99.90;;;;;;5100544;28;20584;-75
2023/06/26 03:28:03;;;;;;;23.50;21.20;;;21.70;99.90;;;;;;5100447;28;21057;-75
2023/06/26 03:30:33;;;;;;;23.27;21.07;;;21.70;99.90;;;;;;5100267;28;20534;-75
2023/06/26 03:33:06;;;;;;;31.50;28.40;;;21.70;99.90;;;;;;5100442;28;20436;-75
2023/06/26 03:35:34;;;;;;;21.13;19.13;;;21.60;99.90;;;;;;5101216;28;20436;-75
2023/06/26 03:38:05;;;;;;;19.90;17.90;;;21.60;99.90;;;;;;5100559;28;20468;-76
2023/06/26 03:40:33;;;;;;;16.20;14.50;;;21.60;99.90;;;;;;5100431;28;20500;-75
2023/06/26 03:43:02;;;;;;;14.73;13.43;;;21.60;99.90;;;;;;5099129;28;20436;-77
2023/06/26 03:45:40;;;;;;;14.80;13.40;;;21.60;99.90;;;;;;5096413;28;20471;-77
2023/06/26 03:48:08;;;;;;;14.57;13.07;;;21.60;99.90;;;;;;5101064;28;20464;-75
2023/06/26 03:50:37;;;;;;;13.33;12.13;;;21.60;99.90;;;;;;5103166;28;20467;-75
2023/06/26 03:53:07;;;;;;;14.47;13.07;;;21.60;99.90;;;;;;5100769;28;20494;-75
2023/06/26 03:55:35;;;;;;;14.60;13.10;;;21.60;99.90;;;;;;5101447;28;20428;-75
2023/06/26 03:58:05;;;;;;;14.43;12.93;;;21.60;99.90;;;;;;5099264;28;20464;-75
2023/06/26 04:00:33;;;;;;;14.27;12.83;;;21.50;99.90;;;;;;5097376;28;20587;-75
2023/06/26 04:03:02;;;;;;;13.17;11.93;;;21.50;99.90;;;;;;5097840;28;20448;-75
2023/06/26 04:05:31;;;;;;;15.20;13.70;;;21.50;99.90;;;;;;5097157;28;20490;-75
2023/06/26 04:08:00;;;;;;;13.27;12.13;;;21.50;99.90;;;;;;5096440;28;20491;-77
2023/06/26 04:10:29;;;;;;;14.47;13.17;;;21.50;99.90;;;;;;5096624;28;20466;-75
2023/06/26 04:12:57;;;;;;;15.00;13.60;;;21.50;99.90;;;;;;5096390;28;20535;-75
2023/06/26 04:15:25;;;;;;;13.23;12.07;;;21.50;99.90;;;;;;5097582;28;20448;-75
2023/06/26 04:17:54;;;;;;;13.03;11.83;;;21.50;99.90;;;;;;5096365;28;20989;-75
2023/06/26 04:20:22;;;;;;;13.53;12.23;;;21.50;99.90;;;;;;5097628;28;20957;-76
2023/06/26 04:22:52;;;;;;;14.57;13.17;;;21.50;99.90;;;;;;5097586;28;20976;-76
2023/06/26 04:25:20;;;;;;;14.63;13.23;;;21.50;99.90;;;;;;5096080;28;20479;-76
2023/06/26 04:27:49;;;;;;;12.97;11.77;;;21.50;99.90;;;;;;5096858;28;20491;-75
2023/06/26 04:30:17;;;;;;;13.30;12.10;;;21.60;99.90;;;;;;5096906;28;20543;-76
2023/06/26 04:32:45;;;;;;;15.97;12.57;;;21.60;99.90;;;;;;5099239;28;20445;-75
2023/06/26 04:35:14;;;;;;;13.63;12.33;;;21.60;99.90;;;;;;5097740;28;20432;-75
2023/06/26 04:37:42;;;;;;;13.93;12.53;;;21.60;99.90;;;;;;5097720;28;20454;-75
2023/06/26 04:40:11;;;;;;;13.90;12.50;;;21.60;99.90;;;;;;5098485;28;20436;-76
2023/06/26 04:42:39;;;;;;;14.27;12.90;;;21.60;99.90;;;;;;5096618;28;20956;-76
2023/06/26 04:45:09;;;;;;;13.30;12.00;;;21.70;99.90;;;;;;5096001;28;20511;-75
2023/06/26 04:47:37;;;;;;;13.30;12.10;;;21.70;99.90;;;;;;5097317;28;20468;-76
2023/06/26 04:50:09;;;;;;;12.53;11.30;;;21.70;99.90;;;;;;5098085;28;20420;-76
2023/06/26 04:52:37;;;;;;;13.97;12.57;;;21.70;99.90;;;;;;5097681;28;20432;-76
2023/06/26 04:55:06;;;;;;;12.77;11.57;;;21.80;99.90;;;;;;5096703;28;20440;-75
2023/06/26 04:57:34;;;;;;;13.57;12.27;;;21.80;99.90;;;;;;5096937;28;20475;-75
2023/06/26 05:00:02;;;;;;;13.47;12.23;;;21.80;99.90;;;;;;5097381;28;20444;-75
2023/06/26 05:02:32;;;;;;;13.67;12.40;;;21.80;99.90;;;;;;5096162;28;20447;-75
2023/06/26 05:05:00;;;;;;;13.30;12.00;;;21.90;99.90;;;;;;5096944;28;20836;-75
2023/06/26 05:07:28;;;;;;;11.90;10.90;;;21.90;99.90;;;;;;5097929;28;20467;-76
2023/06/26 05:09:57;;;;;;;13.67;12.37;;;22.00;99.90;;;;;;5102383;28;20428;-81
2023/06/26 05:12:25;;;;;;;14.43;13.13;;;22.00;99.90;;;;;;5101285;28;20436;-81
2023/06/26 05:14:53;;;;;;;12.13;10.93;;;22.00;99.90;;;;;;5099564;28;20439;-80
2023/06/26 05:17:21;;;;;;;12.23;11.00;;;22.10;99.90;;;;;;5099350;28;20444;-80
2023/06/26 05:19:51;;;;;;;12.40;11.17;;;22.10;99.90;;;;;;5101075;28;20523;-80
2023/06/26 05:22:20;;;;;;;12.30;11.10;;;22.10;99.90;;;;;;5100368;28;20547;-80
2023/06/26 05:24:48;;;;;;;12.80;11.50;;;22.20;99.90;;;;;;5101523;28;20471;-80
2023/06/26 05:27:21;;;;;;;11.17;10.07;;;22.20;99.90;;;;;;5099563;28;20530;-79
2023/06/26 05:29:50;;;;;;;12.13;11.03;;;22.30;99.90;;;;;;5097486;28;20510;-79
2023/06/26 05:32:19;;;;;;;12.77;10.90;;;22.30;99.90;;;;;;5097655;28;20501;-79
2023/06/26 05:34:49;;;;;;;12.20;11.00;;;22.40;99.90;;;;;;5097566;28;20449;-80
2023/06/26 05:37:21;;;;;;;12.13;11.03;;;22.40;99.90;;;;;;5099204;28;20486;-79
2023/06/26 05:39:50;;;;;;;11.63;10.50;;;22.50;99.90;;;;;;5098810;28;20459;-79
2023/06/26 05:42:19;;;;;;;11.00;9.90;;;22.60;99.90;;;;;;5100773;28;20451;-80
2023/06/26 05:44:47;;;;;;;11.07;9.97;;;22.70;99.90;;;;;;5102576;28;20444;-80
2023/06/26 05:47:15;;;;;;;11.70;10.57;;;22.90;99.90;;;;;;5101387;28;20542;-81
2023/06/26 05:49:43;;;;;;;11.83;10.73;;;23.00;99.90;;;;;;5101328;28;20499;-80
2023/06/26 05:52:13;;;;;;;11.80;10.60;;;23.10;99.90;;;;;;5100786;28;20442;-79
2023/06/26 05:54:43;;;;;;;11.70;10.60;;;23.20;99.90;;;;;;5099082;28;20444;-80
2023/06/26 05:57:14;;;;;;;11.67;10.47;;;23.40;99.90;;;;;;5098298;28;20440;-80
2023/06/26 05:59:44;;;;;;;11.17;10.07;;;23.50;99.90;;;;;;5099653;28;20452;-80
2023/06/26 06:02:13;;;;;;;11.23;9.60;;;23.70;99.90;;;;;;5100432;28;20512;-81
2023/06/26 06:04:41;;;;;;;11.40;10.30;;;23.80;99.90;;;;;;5100562;28;20463;-81
2023/06/26 06:07:09;;;;;;;11.13;10.03;;;24.00;99.90;;;;;;5100167;28;20510;-81
2023/06/26 06:09:37;;;;;;;10.87;9.77;;;24.10;99.90;;;;;;5100192;28;20499;-80
2023/06/26 06:12:08;;;;;;;10.43;9.33;;;24.30;99.90;;;;;;5100934;28;20437;-81
2023/06/26 06:14:37;;;;;;;11.13;10.03;;;24.50;99.90;;;;;;5102179;28;20479;-80
2023/06/26 06:17:05;;;;;;;11.57;10.17;;;24.60;99.90;;;;;;5100521;28;20904;-81
2023/06/26 06:19:33;;;;;;;11.93;10.70;;;24.80;99.90;;;;;;5102346;28;20463;-81
2023/06/26 06:22:01;;;;;;;11.80;10.67;;;25.00;99.90;;;;;;5102324;28;20440;-81
2023/06/26 06:24:29;;;;;;;11.00;9.87;;;25.10;99.90;;;;;;5102500;28;20912;-80
2023/06/26 06:26:57;;;;;;;11.43;10.23;;;25.30;99.90;;;;;;5102551;28;20459;-81
2023/06/26 06:29:27;;;;;;;11.83;10.63;;;25.50;99.90;;;;;;5103552;28;20523;-81
2023/06/26 06:31:55;;;;;;;12.20;11.10;;;25.60;99.90;;;;;;5102462;28;20456;-81
2023/06/26 06:34:23;;;;;;;12.30;10.73;;;25.70;99.90;;;;;;5101854;28;20444;-81
2023/06/26 06:36:51;;;;;;;14.30;12.93;;;25.80;99.90;;;;;;5101756;28;20440;-81
2023/06/26 06:39:19;;;;;;;14.23;12.73;;;25.90;99.90;;;;;;5100915;28;20469;-81
2023/06/26 06:41:47;;;;;;;13.20;11.87;;;26.10;99.90;;;;;;5100107;28;20458;-81
2023/06/26 06:44:16;;;;;;;13.23;11.77;;;26.10;99.90;;;;;;5098582;28;20456;-80
2023/06/26 06:46:46;;;;;;;14.13;12.83;;;26.10;99.90;;;;;;5098501;28;20493;-80
2023/06/26 06:49:14;;;;;;;14.87;13.47;;;26.20;99.90;;;;;;5102372;28;20468;-80
2023/06/26 06:51:42;;;;;;;13.77;12.47;;;26.30;99.90;;;;;;5104434;28;20448;-80
2023/06/26 06:54:11;;;;;;;14.10;12.80;;;26.30;99.90;;;;;;5102144;28;20441;-81
2023/06/26 06:56:39;;;;;;;15.33;13.63;;;26.50;99.90;;;;;;5104928;28;20461;-81
2023/06/26 06:59:08;;;;;;;16.13;14.67;;;26.50;99.90;;;;;;5101742;28;20519;-80
2023/06/26 07:01:36;;;;;;;15.73;14.37;;;26.50;99.90;;;;;;5101902;28;20824;-80
2023/06/26 07:04:06;;;;;;;16.27;14.77;;;26.50;99.90;;;;;;5100394;28;20500;-80
2023/06/26 07:06:34;;;;;;;16.93;15.53;;;26.50;99.90;;;;;;5098721;28;20459;-82
2023/06/26 07:09:03;;;;;;;15.53;14.23;;;26.40;99.90;;;;;;5096937;28;20468;-81
2023/06/26 07:11:31;;;;;;;15.17;13.80;;;26.40;99.90;;;;;;5097092;28;20539;-81
2023/06/26 07:13:59;;;;;;;14.17;12.80;;;26.30;99.90;;;;;;5099731;28;20447;-81
2023/06/26 07:16:28;;;;;;;13.57;12.30;;;26.20;99.90;;;;;;5098586;28;20441;-81
2023/06/26 07:18:58;;;;;;;13.40;12.10;;;26.20;99.90;;;;;;5098868;28;20448;-81
2023/06/26 07:21:27;;;;;;;14.33;12.40;;;26.20;99.90;;;;;;5098860;28;20429;-81
2023/06/26 07:23:56;;;;;;;15.70;13.00;;;26.20;99.90;;;;;;5096904;28;20451;-81
2023/06/26 07:26:24;;;;;;;13.37;12.17;;;26.30;99.90;;;;;;5096381;28;20472;-81
2023/06/26 07:29:11;;;;;;;12.20;11.10;;;26.40;99.90;;;;;;5098705;28;20455;-80
2023/06/26 07:31:39;;;;;;;12.63;11.43;;;26.50;99.90;;;;;;5098618;28;20474;-80
2023/06/26 07:34:07;;;;;;;12.27;11.07;;;26.60;99.90;;;;;;5098982;28;20822;-80
2023/06/26 07:36:38;;;;;;;12.50;11.30;;;26.60;99.90;;;;;;5096455;28;20448;-81
2023/06/26 07:39:06;;;;;;;13.17;11.97;;;26.70;99.90;;;;;;5097660;28;20863;-81
2023/06/26 07:41:36;;;;;;;13.00;11.80;;;26.70;99.90;;;;;;5098952;28;20440;-80
2023/06/26 07:44:05;;;;;;;13.07;11.57;;;26.70;99.90;;;;;;5100482;28;20436;-80
2023/06/26 07:46:34;;;;;;;14.77;13.07;;;26.60;99.90;;;;;;5100859;28;20472;-81
2023/06/26 07:49:03;;;;;;;16.10;13.90;;;26.60;99.90;;;;;;5099920;28;20467;-81
2023/06/26 07:51:31;;;;;;;16.47;14.77;;;26.50;99.90;;;;;;5099732;28;20488;-80
2023/06/26 07:54:00;;;;;;;15.60;14.10;;;26.50;99.90;;;;;;5100896;28;20501;-79
2023/06/26 07:56:28;;;;;;;17.80;15.57;;;26.40;99.90;;;;;;5099505;28;20452;-80
2023/06/26 07:58:57;;;;;;;16.90;15.40;;;26.40;99.90;;;;;;5099563;28;20464;-80
2023/06/26 08:01:25;;;;;;;16.73;15.23;;;26.30;99.90;;;;;;5100940;28;20451;-80
2023/06/26 08:03:54;;;;;;;19.60;15.13;;;26.20;99.90;;;;;;5102409;28;20509;-81
2023/06/26 08:06:22;;;;;;;16.13;14.77;;;26.20;99.90;;;;;;5103980;28;20460;-80
2023/06/26 08:08:51;;;;;;;13.83;12.30;;;26.10;99.90;;;;;;5102688;28;20460;-80
2023/06/26 08:11:20;;;;;;;13.77;10.67;;;26.10;99.90;;;;;;5104112;28;20877;-81
2023/06/26 08:13:48;;;;;;;13.40;12.00;;;26.00;99.90;;;;;;5109309;28;20445;-80
2023/06/26 08:16:17;;;;;;;16.10;10.83;;;25.90;99.90;;;;;;5102115;28;20440;-81
2023/06/26 08:18:47;;;;;;;13.17;11.00;;;25.80;99.90;;;;;;5098060;28;20517;-77
2023/06/26 08:21:15;;;;;;;15.20;11.93;;;25.60;99.90;;;;;;5096703;28;20449;-78
2023/06/26 08:23:43;;;;;;;16.00;12.53;;;25.40;99.90;;;;;;5095316;28;20466;-78
2023/06/26 08:26:11;;;;;;;14.37;12.80;;;25.20;99.90;;;;;;5096534;28;20490;-78
2023/06/26 08:28:41;;;;;;;14.30;11.80;;;25.00;99.90;;;;;;5099974;28;20543;-78
2023/06/26 08:31:10;;;;;;;15.73;11.83;;;24.70;99.90;;;;;;5098166;28;20437;-76
2023/06/26 08:33:38;;;;;;;13.43;12.03;;;24.30;99.90;;;;;;5099382;28;20444;-76
2023/06/26 08:36:06;;;;;;;12.70;11.37;;;24.10;99.90;;;;;;5100255;28;20540;-74
2023/06/26 08:38:34;;;;;;;14.10;12.80;;;23.80;99.90;;;;;;5100725;28;20542;-75
2023/06/26 08:41:02;;;;;;;15.13;13.60;;;23.70;99.90;;;;;;5101448;28;20818;-75
2023/06/26 08:43:31;;;;;;;16.97;14.80;;;23.50;99.90;;;;;;5100575;28;20451;-75
2023/06/26 08:46:00;;;;;;;16.43;14.70;;;23.50;99.90;;;;;;5100702;28;20535;-76
2023/06/26 08:48:32;;;;;;;16.33;14.63;;;23.40;99.90;;;;;;5100794;28;20475;-75
2023/06/26 08:51:06;;;;;;;17.30;15.70;;;23.30;99.90;;;;;;5103792;28;20417;-76
2023/06/26 08:53:41;;;;;;;19.27;17.27;;;23.20;99.90;;;;;;5101651;28;20420;-76
2023/06/26 08:56:10;;;;;;;18.87;16.97;;;23.20;99.90;;;;;;5101789;28;20452;-75
2023/06/26 08:58:39;;;;;;;20.10;17.90;;;23.10;99.90;;;;;;5103139;28;20468;-76
2023/06/26 09:01:13;;;;;;;21.17;19.00;;;23.10;99.90;;;;;;5103299;28;20424;-74
2023/06/26 09:03:44;;;;;;;21.30;19.10;;;23.10;99.90;;;;;;5101480;28;20429;-76
2023/06/26 09:06:12;;;;;;;21.90;19.73;;;23.10;99.90;;;;;;5102312;28;20409;-74
2023/06/26 09:08:41;;;;;;;23.50;20.90;;;23.10;99.90;;;;;;5100846;28;20836;-75
2023/06/26 09:11:09;;;;;;;23.33;20.93;;;23.00;99.90;;;;;;5098571;28;20452;-75
2023/06/26 09:13:38;;;;;;;22.83;20.70;;;23.00;99.90;;;;;;5100843;28;20497;-75
2023/06/26 09:16:08;;;;;;;24.13;19.60;;;23.00;99.90;;;;;;5099692;28;20493;-76
2023/06/26 09:18:37;;;;;;;21.17;18.47;;;22.90;99.90;;;;;;5099468;28;20456;-76
2023/06/26 09:21:09;;;;;;;22.63;20.23;;;22.90;99.90;;;;;;5098011;28;20445;-76
2023/06/26 09:23:37;;;;;;;19.50;17.40;;;22.90;99.90;;;;;;5100514;28;20452;-75
2023/06/26 09:26:06;;;;;;;22.00;18.30;;;22.90;99.90;;;;;;5100289;28;20432;-75
2023/06/26 09:28:36;;;;;;;20.07;18.07;;;23.00;99.90;;;;;;5098561;28;20486;-76
2023/06/26 09:31:05;;;;;;;16.93;15.33;;;23.00;99.90;;;;;;5099730;28;20994;-76
2023/06/26 09:33:38;;;;;;;14.10;11.07;;;23.00;99.90;;;;;;5097268;28;20440;-76
2023/06/26 09:36:09;;;;;;;14.10;8.20;;;23.10;99.90;;;;;;5098184;28;20437;-76
2023/06/26 09:38:37;;;;;;;12.10;7.50;;;23.20;99.90;;;;;;5099430;28;20547;-75
2023/06/26 09:41:06;;;;;;;8.80;5.13;;;23.30;99.90;;;;;;5097986;28;20485;-75
2023/06/26 09:43:34;;;;;;;9.77;4.87;;;23.30;99.90;;;;;;5097645;28;20949;-75
2023/06/26 09:46:04;;;;;;;8.63;4.37;;;23.30;99.90;;;;;;5097293;28;20439;-75
2023/06/26 09:48:32;;;;;;;8.67;4.00;;;23.30;99.90;;;;;;5095110;28;20472;-75
2023/06/26 09:51:02;;;;;;;10.00;4.43;;;23.30;99.90;;;;;;5096994;28;20467;-75
2023/06/26 09:53:43;;;;;;;7.70;4.13;;;23.30;99.90;;;;;;5100397;28;20444;-74
2023/06/26 09:56:17;;;;;;;7.90;3.93;;;23.30;99.90;;;;;;5097520;28;20412;-76
2023/06/26 09:58:46;;;;;;;7.03;3.43;;;23.40;99.90;;;;;;5095355;28;20464;-76
2023/06/26 10:01:15;;;;;;;9.23;3.70;;;23.40;99.90;;;;;;5096495;28;20523;-75
2023/06/26 10:03:44;;;;;;;7.53;3.30;;;23.50;99.90;;;;;;5095988;28;20936;-75
2023/06/26 10:06:14;;;;;;;6.43;3.10;;;23.50;99.90;;;;;;5095161;28;20462;-75
2023/06/26 10:08:43;;;;;;;9.63;3.30;;;23.60;99.90;;;;;;5094018;28;20579;-75
2023/06/26 10:11:17;;;;;;;10.80;2.77;;;23.70;99.90;;;;;;5096267;28;20949;-74
2023/06/26 10:13:48;;;;;;;6.67;2.57;;;23.70;99.90;;;;;;5094520;28;20515;-75
2023/06/26 10:16:23;;;;;;;5.23;2.50;;;23.80;99.90;;;;;;5096494;28;20788;-75
2023/06/26 10:18:57;;;;;;;6.20;3.00;;;23.80;99.90;;;;;;5095479;28;20455;-75
2023/06/26 10:21:29;;;;;;;5.83;2.10;;;23.80;99.90;;;;;;5097988;28;20422;-76
2023/06/26 10:23:58;;;;;;;6.40;2.70;;;23.80;99.90;;;;;;5096843;28;20443;-75
2023/06/26 10:26:29;;;;;;;5.60;2.47;;;23.80;99.90;;;;;;5096105;28;20429;-76
2023/06/26 10:28:58;;;;;;;6.33;2.67;;;23.80;99.90;;;;;;5094834;28;20533;-76
2023/06/26 10:31:29;;;;;;;8.57;2.83;;;23.80;99.90;;;;;;5095041;28;20827;-75
2023/06/26 10:33:59;;;;;;;7.70;2.77;;;23.90;99.90;;;;;;5094242;28;20959;-75
2023/06/26 10:36:32;;;;;;;5.27;2.50;;;23.90;99.90;;;;;;5097853;28;20485;-76
2023/06/26 10:39:07;;;;;;;6.10;2.23;;;23.90;99.90;;;;;;5097102;28;20513;-77
2023/06/26 10:41:42;;;;;;;8.13;2.73;;;23.90;99.90;;;;;;5096273;28;20489;-76
2023/06/26 10:44:40;;;;;;;7.40;2.43;;;23.90;99.90;;;;;;5096913;28;20436;-77
2023/06/26 10:47:09;;;;;;;5.70;2.10;;;23.90;99.90;;;;;;5098022;28;20445;-77
2023/06/26 10:49:39;;;;;;;7.47;2.63;;;24.00;99.90;;;;;;5094271;28;20476;-77
2023/06/26 10:52:11;;;;;;;5.20;2.80;;;24.00;99.90;;;;;;5095595;28;20420;-76
2023/06/26 10:54:39;;;;;;;5.97;2.40;;;24.00;99.90;;;;;;5093900;28;20470;-76
2023/06/26 10:57:08;;;;;;;6.27;2.50;;;24.10;99.90;;;;;;5094120;28;20437;-76
2023/06/26 10:59:40;;;;;;;5.57;2.53;;;24.10;99.90;;;;;;5092336;28;20560;-75
2023/06/26 11:02:09;;;;;;;6.00;2.20;;;24.20;99.90;;;;;;5094006;28;20469;-76
2023/06/26 11:04:39;;;;;;;7.00;2.30;;;24.30;99.90;;;;;;5095021;28;20432;-76
2023/06/26 11:07:22;;;;;;;4.60;2.13;;;24.30;99.90;;;;;;5093884;28;20439;-77
2023/06/26 11:10:01;;;;;;;6.13;2.60;;;24.30;99.90;;;;;;5094298;28;20540;-76
2023/06/26 11:12:36;;;;;;;6.40;2.13;;;24.30;99.90;;;;;;5094030;28;20503;-76
2023/06/26 11:15:08;;;;;;;6.33;2.00;;;24.30;99.90;;;;;;5094378;28;20937;-77
2023/06/26 11:17:36;;;;;;;5.20;2.17;;;24.30;99.90;;;;;;5095351;28;20428;-76
2023/06/26 11:20:07;;;;;;;6.33;2.50;;;24.30;99.90;;;;;;5096261;28;20451;-77
2023/06/26 11:22:38;;;;;;;7.60;2.63;;;24.30;99.90;;;;;;5096336;28;20451;-77
2023/06/26 11:25:08;;;;;;;6.60;2.43;;;24.20;99.90;;;;;;5097319;28;20911;-78
2023/06/26 11:27:40;;;;;;;6.17;2.53;;;24.30;99.90;;;;;;5097726;28;20501;-77
2023/06/26 11:30:10;;;;;;;6.50;2.53;;;24.30;99.90;;;;;;5097787;28;20513;-77
2023/06/26 11:32:39;;;;;;;7.53;2.50;;;24.30;99.90;;;;;;5097675;28;20909;-76
2023/06/26 11:35:09;;;;;;;7.70;2.70;;;24.30;99.90;;;;;;5097185;28;20535;-77
2023/06/26 11:37:39;;;;;;;5.80;2.43;;;24.40;99.90;;;;;;5095815;28;20441;-76
2023/06/26 11:40:18;;;;;;;5.30;2.80;;;24.50;99.90;;;;;;5097824;28;20417;-77
2023/06/26 11:42:46;;;;;;;4.93;2.47;;;24.50;99.90;;;;;;5098008;28;20448;-77
2023/06/26 11:45:15;;;;;;;4.10;1.97;;;24.50;99.90;;;;;;5096911;28;20522;-77
2023/06/26 11:47:43;;;;;;;5.93;2.90;;;24.50;99.90;;;;;;5095470;28;20524;-77
2023/06/26 11:50:17;;;;;;;6.30;2.50;;;24.50;99.90;;;;;;5096491;28;20538;-77
2023/06/26 11:52:53;;;;;;;5.33;2.43;;;24.60;99.90;;;;;;5097528;28;20849;-77
2023/06/26 11:55:21;;;;;;;4.60;2.07;;;24.70;99.90;;;;;;5097656;28;20470;-77
2023/06/26 11:57:50;;;;;;;5.90;3.00;;;24.70;99.90;;;;;;5098494;28;20889;-78
2023/06/26 12:00:19;;;;;;;6.50;3.10;;;24.80;99.90;;;;;;5095969;28;20850;-77
2023/06/26 12:02:47;;;;;;;4.70;2.30;;;24.80;99.90;;;;;;5097167;28;20467;-78
2023/06/26 12:05:16;;;;;;;7.30;2.67;;;24.80;99.90;;;;;;5095730;28;20463;-77
2023/06/26 12:07:48;;;;;;;6.20;2.43;;;24.90;99.90;;;;;;5096342;28;20493;-77
2023/06/26 12:10:16;;;;;;;4.80;1.83;;;24.90;99.70;;;;;;5095935;28;20547;-77
2023/06/26 12:12:45;;;;;;;6.50;2.53;;;25.00;99.50;;;;;;5095332;28;20970;-77
2023/06/26 12:15:16;;;;;;;8.07;2.90;;;25.00;99.40;;;;;;5097688;28;20448;-77
2023/06/26 12:17:44;;;;;;;5.20;2.50;;;25.00;99.30;;;;;;5097073;28;20428;-77
2023/06/26 12:20:19;;;;;;;7.43;2.70;;;25.00;99.10;;;;;;5095201;28;20974;-77
2023/06/26 12:22:50;;;;;;;5.20;2.43;;;25.00;99.00;;;;;;5098182;28;20451;-77
2023/06/26 12:25:23;;;;;;;5.33;2.50;;;25.00;98.90;;;;;;5096152;28;20513;-77
2023/06/26 12:27:52;;;;;;;6.10;3.23;;;24.90;98.90;;;;;;5096903;28;20459;-77
2023/06/26 12:30:20;;;;;;;7.40;2.60;;;24.90;98.90;;;;;;5095789;28;20513;-77
2023/06/26 12:32:48;;;;;;;5.37;2.83;;;24.90;98.90;;;;;;5096584;28;20486;-78
2023/06/26 12:35:17;;;;;;;5.30;2.20;;;24.80;98.80;;;;;;5095098;28;20504;-77
2023/06/26 12:37:45;;;;;;;5.70;2.40;;;24.90;98.70;;;;;;5096474;28;21008;-77
2023/06/26 12:40:21;;;;;;;6.20;2.50;;;24.90;98.60;;;;;;5096377;28;20486;-77
2023/06/26 12:42:50;;;;;;;6.77;2.57;;;25.00;98.70;;;;;;5095137;28;20432;-77